Time;durP1;ratioP1;P1;durP2;ratioP2;P2;SDS_P1;SDS_P2;PMS_P1;PMS_P2;Temp;Humidity;BMP_temperature;BMP_pressure;BME280_temperature;BME280_humidity;BME280_pressure;Samples;Min_cycle;Max_cycle;Signal;HPM_P1;HPM_P2
2022/06/02 00:02:32;;;;;;;0.80;0.60;;;16.10;53.20;18.20;93948.00;;;;10317494;28;45175;-63
2022/06/02 00:08:05;;;;;;;0.88;0.60;;;16.10;53.10;18.20;93957.00;;;;10317094;28;47736;-63
2022/06/02 00:13:36;;;;;;;1.10;0.70;;;16.20;53.10;18.20;93947.00;;;;10317371;28;45747;-63
2022/06/02 00:19:03;;;;;;;0.75;0.70;;;16.10;53.60;18.20;93940.00;;;;10316655;28;45207;-63
2022/06/02 00:24:36;;;;;;;1.90;0.60;;;16.10;53.40;18.20;93943.00;;;;10317073;28;45863;-63
2022/06/02 00:30:09;;;;;;;0.57;0.55;;;16.10;53.20;18.20;93946.00;;;;10315405;28;45397;-63
2022/06/02 00:35:37;;;;;;;1.08;0.70;;;16.10;53.30;18.10;93942.00;;;;10316587;28;45188;-63
2022/06/02 00:41:12;;;;;;;0.95;0.70;;;16.10;53.40;18.20;93947.00;;;;10316531;28;45188;-63
2022/06/02 00:46:55;;;;;;;1.70;0.60;;;16.10;53.30;18.20;93958.00;;;;10316787;28;45215;-63
2022/06/02 00:52:29;;;;;;;0.82;0.70;;;16.10;53.30;18.20;93957.00;;;;10316032;28;45258;-63
2022/06/02 00:58:09;;;;;;;0.60;0.60;;;16.10;53.30;18.10;93952.00;;;;10314369;28;45694;-64
2022/06/02 01:03:41;;;;;;;0.80;0.63;;;16.10;53.20;18.20;93968.00;;;;10310533;28;45119;-64
2022/06/02 01:09:31;;;;;;;0.40;0.40;;;16.10;53.30;18.10;93953.00;;;;10314300;28;45199;-63
2022/06/02 01:15:06;;;;;;;1.23;0.60;;;16.10;53.30;18.10;93968.00;;;;10315002;28;45875;-63
2022/06/02 01:20:56;;;;;;;1.60;0.75;;;16.10;53.30;18.10;93976.00;;;;10314662;28;45359;-63
2022/06/02 01:26:46;;;;;;;0.82;0.50;;;16.10;53.30;18.10;93963.00;;;;10314254;28;45264;-63
2022/06/02 01:32:10;;;;;;;0.73;0.60;;;16.10;53.30;18.10;93974.00;;;;10313952;28;45183;-63
2022/06/02 01:37:40;;;;;;;1.52;0.75;;;16.10;53.90;18.10;93991.00;;;;10313013;28;45360;-63
2022/06/02 01:43:13;;;;;;;0.70;0.60;;;16.10;53.30;18.10;93980.00;;;;10314309;28;45100;-63
2022/06/02 01:48:45;;;;;;;0.70;0.60;;;16.10;53.60;18.10;93970.00;;;;10314581;28;45201;-64
2022/06/02 01:54:20;;;;;;;0.65;0.57;;;16.10;53.30;18.10;93979.00;;;;10314613;28;45251;-63
2022/06/02 01:59:54;;;;;;;0.90;0.60;;;16.10;53.30;18.10;93985.00;;;;10314118;28;45300;-63
2022/06/02 02:05:30;;;;;;;0.55;0.50;;;16.10;53.60;18.10;93980.00;;;;10314200;28;45860;-63
2022/06/02 02:11:16;;;;;;;1.20;0.65;;;16.00;53.40;18.10;93977.00;;;;10313817;28;45107;-63
2022/06/02 02:16:50;;;;;;;1.00;0.63;;;16.10;53.50;18.10;93968.00;;;;10313816;28;45385;-63
2022/06/02 02:22:22;;;;;;;0.93;0.68;;;16.00;53.30;18.10;93980.00;;;;10313591;28;45125;-63
2022/06/02 02:28:04;;;;;;;0.63;0.63;;;16.00;53.40;18.10;93972.00;;;;10312636;28;45175;-63
2022/06/02 02:33:35;;;;;;;1.20;0.75;;;16.10;53.50;18.10;93964.00;;;;10313648;28;45232;-63
2022/06/02 02:39:12;;;;;;;0.68;0.60;;;16.10;53.40;18.10;93961.00;;;;10313266;28;45367;-63
2022/06/02 02:44:40;;;;;;;0.70;0.50;;;16.00;53.30;18.10;93971.00;;;;10313291;28;45258;-63
2022/06/02 02:50:09;;;;;;;0.73;0.70;;;16.00;53.40;18.10;93975.00;;;;10314748;28;45783;-63
2022/06/02 02:55:40;;;;;;;0.60;0.55;;;16.00;53.40;18.10;93970.00;;;;10319924;28;45839;-63
2022/06/02 03:01:16;;;;;;;0.98;0.70;;;16.10;53.50;18.10;93940.00;;;;10319363;28;45108;-63
2022/06/02 03:06:41;;;;;;;1.00;0.60;;;16.00;53.40;18.10;93959.00;;;;10319553;28;45774;-63
2022/06/02 03:12:10;;;;;;;1.02;0.68;;;16.00;53.50;18.10;93936.00;;;;10319496;28;45115;-63
2022/06/02 03:17:52;;;;;;;1.08;0.60;;;16.00;53.30;18.10;93939.00;;;;10319215;28;45133;-63
2022/06/02 03:23:51;;;;;;;0.70;0.52;;;16.00;53.30;18.10;93951.00;;;;10319222;28;46039;-63
2022/06/02 03:29:24;;;;;;;0.63;0.50;;;16.00;53.30;18.10;93954.00;;;;10318107;28;45743;-63
2022/06/02 03:34:53;;;;;;;0.50;0.50;;;16.00;53.30;18.10;93950.00;;;;10318945;28;45092;-63
2022/06/02 03:40:29;;;;;;;0.70;0.50;;;16.00;53.30;18.10;93942.00;;;;10318620;28;45222;-63
2022/06/02 03:46:08;;;;;;;0.77;0.57;;;16.00;53.40;18.10;93948.00;;;;10318603;28;45276;-63
2022/06/02 03:51:42;;;;;;;1.05;0.55;;;16.00;53.30;18.00;93947.00;;;;10318374;28;45246;-63
2022/06/02 03:57:25;;;;;;;0.93;0.50;;;16.00;53.40;18.10;93953.00;;;;10317918;28;45862;-63
2022/06/02 04:02:52;;;;;;;0.50;0.50;;;16.00;53.30;18.10;93951.00;;;;10316505;28;45231;-62
2022/06/02 04:08:36;;;;;;;0.60;0.60;;;16.00;53.30;18.10;93940.00;;;;10317507;28;45228;-62
2022/06/02 04:14:10;;;;;;;1.00;0.55;;;16.00;53.30;18.10;93958.00;;;;10317757;28;45152;-62
2022/06/02 04:25:43;;;;;;;1.35;0.50;;;16.00;53.30;18.00;93974.00;;;;10317352;28;45264;-61
2022/06/02 04:31:19;;;;;;;0.40;0.40;;;16.00;53.30;18.00;93984.00;;;;10316623;28;45663;-62
2022/06/02 04:36:52;;;;;;;0.57;0.52;;;16.00;53.20;18.10;93983.00;;;;10316642;28;45171;-62
2022/06/02 04:42:25;;;;;;;0.85;0.40;;;16.00;53.20;18.00;93985.00;;;;10315316;28;45116;-62
2022/06/02 04:47:58;;;;;;;0.60;0.50;;;16.00;53.30;18.10;93992.00;;;;10315926;28;45211;-62
2022/06/02 04:53:27;;;;;;;0.82;0.60;;;16.00;53.20;18.10;93984.00;;;;10316349;28;45184;-62
2022/06/02 04:58:56;;;;;;;0.82;0.47;;;16.00;53.20;18.00;93998.00;;;;10315377;28;45882;-62
2022/06/02 05:04:28;;;;;;;0.70;0.50;;;16.00;53.30;18.00;94004.00;;;;10315733;28;45206;-62
2022/06/02 05:10:03;;;;;;;0.60;0.40;;;16.00;53.20;18.10;93991.00;;;;10315295;28;45224;-62
2022/06/02 05:15:49;;;;;;;1.67;0.60;;;16.00;53.00;18.10;93987.00;;;;10314936;28;45135;-62
2022/06/02 05:21:28;;;;;;;0.52;0.50;;;16.00;53.20;18.10;93997.00;;;;10314516;28;45176;-62
2022/06/02 05:27:40;;;;;;;0.90;0.50;;;16.00;53.00;18.00;93996.00;;;;10315026;28;45205;-62
2022/06/02 05:34:04;;;;;;;0.52;0.40;;;16.00;53.10;18.10;94002.00;;;;10312527;28;45186;-62
2022/06/02 05:40:09;;;;;;;0.40;0.40;;;16.00;53.00;18.10;94016.00;;;;10295252;28;45346;-63
2022/06/02 05:45:52;;;;;;;0.43;0.40;;;16.00;52.90;18.10;94015.00;;;;10313566;28;45723;-63
2022/06/02 05:51:23;;;;;;;0.77;0.50;;;16.00;53.20;18.10;94020.00;;;;10314075;28;45186;-62
2022/06/02 05:57:00;;;;;;;0.50;0.50;;;16.00;53.00;18.10;94021.00;;;;10313182;28;45139;-63
2022/06/02 06:02:48;;;;;;;0.50;0.50;;;16.00;53.00;18.10;94024.00;;;;10313202;28;45226;-62
2022/06/02 06:08:19;;;;;;;0.52;0.40;;;16.00;53.10;18.10;94030.00;;;;10313256;28;45126;-62
2022/06/02 06:14:03;;;;;;;0.68;0.40;;;16.00;53.10;18.10;94029.00;;;;10314030;28;45788;-62
2022/06/02 06:19:57;;;;;;;0.68;0.40;;;16.00;53.00;18.10;94023.00;;;;10311496;28;45128;-62
2022/06/02 06:25:30;;;;;;;0.68;0.45;;;16.00;53.00;18.10;94029.00;;;;10311833;28;45679;-62
2022/06/02 06:31:03;;;;;;;1.02;0.45;;;16.00;53.00;18.10;94052.00;;;;10312392;28;45798;-62
2022/06/02 06:37:03;;;;;;;0.40;0.40;;;16.00;53.00;18.10;94047.00;;;;10312372;28;45170;-62
2022/06/02 06:42:42;;;;;;;0.63;0.40;;;16.00;53.00;18.10;94061.00;;;;10310919;28;45712;-62
2022/06/02 06:48:11;;;;;;;1.35;0.60;;;16.00;52.90;18.10;94058.00;;;;10311744;28;45128;-62
2022/06/02 06:53:47;;;;;;;0.50;0.40;;;16.00;53.00;18.10;94063.00;;;;10310905;28;45168;-62
2022/06/02 06:59:29;;;;;;;1.07;0.40;;;16.10;52.90;18.10;94069.00;;;;10311462;28;45122;-62
2022/06/02 07:05:01;;;;;;;0.60;0.47;;;16.00;52.90;18.10;94056.00;;;;10311589;28;45882;-62
2022/06/02 07:10:31;;;;;;;0.70;0.50;;;16.00;52.90;18.10;94061.00;;;;10311422;28;45342;-62
2022/06/02 07:15:59;;;;;;;0.98;0.50;;;16.00;52.80;18.10;94068.00;;;;10310954;28;45188;-62
2022/06/02 07:21:30;;;;;;;0.70;0.40;;;16.00;52.80;18.10;94072.00;;;;10311577;28;45229;-62
2022/06/02 07:26:59;;;;;;;0.52;0.50;;;16.00;52.80;18.10;94077.00;;;;10311194;28;45167;-62
2022/06/02 07:32:40;;;;;;;0.50;0.40;;;16.00;52.70;18.10;94082.00;;;;10355201;23;45167;-64
2022/06/02 07:38:15;;;;;;;0.45;0.32;;;16.00;52.70;18.10;94080.00;;;;10356560;28;45135;-63
2022/06/02 07:44:11;;;;;;;0.40;0.40;;;16.00;52.60;18.10;94071.00;;;;10317805;28;45158;-63
2022/06/02 07:49:51;;;;;;;0.70;0.40;;;16.00;52.60;18.10;94082.00;;;;10317394;28;45202;-63
2022/06/02 07:55:25;;;;;;;0.88;0.60;;;16.10;52.60;18.10;94083.00;;;;10317554;28;45869;-64
2022/06/02 08:00:54;;;;;;;0.43;0.40;;;16.00;52.60;18.10;94089.00;;;;10317547;28;45710;-64
2022/06/02 08:06:24;;;;;;;0.52;0.50;;;16.10;52.60;18.10;94082.00;;;;10316888;28;45241;-63
2022/06/02 08:11:56;;;;;;;0.57;0.40;;;16.10;52.60;18.10;94067.00;;;;10316639;28;45163;-64
2022/06/02 08:17:24;;;;;;;0.98;0.50;;;16.10;52.50;18.10;94076.00;;;;10316858;28;45392;-63
2022/06/02 08:23:01;;;;;;;0.75;0.50;;;16.10;52.50;18.10;94086.00;;;;10316288;28;45159;-64
2022/06/02 08:28:52;;;;;;;0.68;0.50;;;16.10;52.50;18.10;94057.00;;;;10316271;28;45202;-61
2022/06/02 08:34:21;;;;;;;0.90;0.57;;;16.10;52.50;18.10;94073.00;;;;10316220;28;45203;-61
2022/06/02 08:40:10;;;;;;;0.70;0.50;;;16.10;52.40;18.10;94068.00;;;;10316182;28;45231;-61
2022/06/02 08:46:14;;;;;;;0.90;0.60;;;16.10;52.50;18.10;94059.00;;;;10315361;28;45804;-61
2022/06/02 08:52:32;;;;;;;0.43;0.40;;;16.10;52.50;18.10;94065.00;;;;10315463;28;45843;-62
2022/06/02 08:58:40;;;;;;;0.70;0.57;;;16.10;52.40;18.10;94069.00;;;;10315452;28;45197;-61
2022/06/02 09:04:20;;;;;;;;;;;16.10;52.40;18.10;94080.00;;;;10315984;28;45092;-62
2022/06/02 09:10:03;;;;;;;1.27;0.55;;;16.10;52.40;18.10;94089.00;;;;10315068;28;45838;-62
2022/06/02 09:16:21;;;;;;;0.88;0.50;;;16.10;52.40;18.20;94099.00;;;;10314858;28;45210;-61
2022/06/02 09:22:03;;;;;;;1.48;0.60;;;16.10;52.40;18.10;94105.00;;;;10150139;29;45865;-61
2022/06/02 09:27:55;;;;;;;0.70;0.50;;;16.10;52.40;18.10;94112.00;;;;10307616;28;45202;-61
2022/06/02 09:33:46;;;;;;;0.90;0.50;;;16.10;52.40;18.10;94100.00;;;;10314126;28;45219;-62
2022/06/02 09:39:26;;;;;;;1.00;0.60;;;16.10;52.40;18.10;94110.00;;;;10313886;28;45230;-61
2022/06/02 09:45:03;;;;;;;0.57;0.50;;;16.10;52.50;18.10;94109.00;;;;10313652;28;45810;-61
2022/06/02 09:51:03;;;;;;;0.85;0.40;;;16.10;52.50;18.10;94097.00;;;;10313004;28;45224;-61
2022/06/02 09:56:56;;;;;;;0.82;0.52;;;16.10;53.00;18.10;94097.00;;;;10313336;28;45288;-61
2022/06/02 10:02:31;;;;;;;0.85;0.52;;;16.10;52.50;18.20;94099.00;;;;10312044;28;45163;-62
2022/06/02 10:08:05;;;;;;;1.25;0.80;;;16.10;52.40;18.20;94097.00;;;;10312997;28;45187;-60
2022/06/02 10:13:53;;;;;;;0.60;0.50;;;16.10;52.40;18.20;94091.00;;;;10313133;28;45766;-61
2022/06/02 10:19:46;;;;;;;1.17;0.50;;;16.10;52.70;18.20;94103.00;;;;10312421;28;45750;-61
2022/06/02 10:26:10;;;;;;;0.90;0.60;;;16.10;52.40;18.10;94093.00;;;;10312830;28;45161;-61
2022/06/02 10:32:15;;;;;;;1.10;0.50;;;16.10;52.40;18.20;94079.00;;;;10275615;28;45151;-61
2022/06/02 10:38:04;;;;;;;1.17;0.63;;;16.10;52.30;18.20;94080.00;;;;10312688;28;45182;-61
2022/06/02 10:44:00;;;;;;;1.02;0.60;;;16.10;52.40;18.20;94091.00;;;;10312334;28;45199;-62
2022/06/02 10:49:27;;;;;;;0.60;0.40;;;16.10;52.40;18.20;94076.00;;;;10312249;28;45281;-62
2022/06/02 10:55:42;;;;;;;0.40;0.40;;;16.10;52.40;18.20;94086.00;;;;10312139;28;45167;-61
2022/06/02 11:01:38;;;;;;;0.80;0.55;;;16.10;52.40;18.20;94080.00;;;;10312263;28;45175;-61
2022/06/02 11:07:45;;;;;;;0.50;0.40;;;16.10;52.40;18.20;94094.00;;;;10311993;28;45245;-61
2022/06/02 11:13:49;;;;;;;0.40;0.32;;;16.20;52.40;18.20;94093.00;;;;10317019;28;45160;-61
2022/06/02 11:20:10;;;;;;;0.43;0.40;;;16.20;52.30;18.20;94092.00;;;;10317876;28;45224;-60
2022/06/02 11:26:15;;;;;;;0.82;0.40;;;16.20;52.30;18.20;94076.00;;;;10153793;29;45148;-61
2022/06/02 11:32:12;;;;;;;0.90;0.50;;;16.20;52.30;18.20;94068.00;;;;10318279;28;45819;-61
2022/06/02 11:38:13;;;;;;;0.50;0.43;;;16.20;52.30;18.20;94074.00;;;;10317485;28;45105;-61
2022/06/02 11:43:52;;;;;;;0.32;0.32;;;16.20;52.20;18.20;94076.00;;;;10317743;28;45807;-61
2022/06/02 11:49:57;;;;;;;0.85;0.40;;;16.20;52.90;18.20;94064.00;;;;10317933;28;45117;-60
2022/06/02 11:55:33;;;;;;;0.65;0.40;;;16.20;52.20;18.20;94082.00;;;;10317104;28;45163;-61
2022/06/02 12:01:21;;;;;;;0.40;0.40;;;16.20;52.20;18.20;94066.00;;;;10318016;28;45686;-62
2022/06/02 12:07:06;;;;;;;0.40;0.40;;;16.20;52.20;18.20;94046.00;;;;10318088;28;45972;-61
2022/06/02 12:12:48;;;;;;;0.40;0.40;;;16.20;52.20;18.20;94069.00;;;;10317791;28;45335;-62
2022/06/02 12:18:26;;;;;;;0.70;0.50;;;16.20;52.20;18.20;94076.00;;;;10317844;28;45263;-61
2022/06/02 12:24:09;;;;;;;0.40;0.40;;;16.20;52.30;18.20;94068.00;;;;10316493;28;45874;-61
2022/06/02 12:29:52;;;;;;;0.70;0.50;;;16.20;52.20;18.20;94076.00;;;;10316264;28;45178;-61
2022/06/02 12:35:50;;;;;;;1.13;0.38;;;16.20;52.20;18.20;94073.00;;;;10316782;28;45660;-61
2022/06/02 12:41:52;;;;;;;0.75;0.40;;;16.10;52.20;18.20;94076.00;;;;10317045;28;45175;-61
2022/06/02 12:48:05;;;;;;;0.40;0.40;;;16.10;52.20;18.20;94068.00;;;;10316636;28;45698;-61
2022/06/02 12:54:15;;;;;;;0.70;0.35;;;16.10;52.20;18.20;94069.00;;;;10316594;28;45236;-62
2022/06/02 13:00:13;;;;;;;0.45;0.40;;;16.10;52.20;18.20;94015.00;;;;10308886;28;45682;-61
2022/06/02 13:06:17;;;;;;;0.40;0.40;;;16.10;52.20;18.20;94019.00;;;;10316233;28;45876;-61
2022/06/02 13:12:24;;;;;;;0.98;0.50;;;16.10;52.20;18.20;94049.00;;;;10314926;28;45194;-61
2022/06/02 13:18:28;;;;;;;0.45;0.43;;;16.10;52.20;18.20;94040.00;;;;10297096;28;45342;-62
2022/06/02 13:24:25;;;;;;;0.40;0.40;;;16.10;52.30;18.20;94054.00;;;;10313788;28;45150;-61
2022/06/02 13:30:25;;;;;;;0.40;0.40;;;16.20;52.30;18.20;94056.00;;;;10351562;22;46071;-63
2022/06/02 13:36:20;;;;;;;0.50;0.40;;;16.10;52.30;18.20;94039.00;;;;10370038;28;45825;-63
2022/06/02 13:42:50;;;;;;;1.17;0.40;;;16.10;52.90;18.20;94051.00;;;;10376717;28;45392;-63
2022/06/02 13:48:52;;;;;;;0.65;0.50;;;16.10;52.30;18.20;94039.00;;;;10277766;28;45577;-63
2022/06/02 14:00:26;;;;;;;0.57;0.40;;;16.20;52.20;18.20;94033.00;;;;10354713;28;45170;-63
2022/06/02 14:06:05;;;;;;;0.52;0.40;;;16.20;52.30;18.20;94039.00;;;;10355100;28;45113;-63
2022/06/02 14:11:49;;;;;;;0.47;0.40;;;16.20;52.60;18.20;94032.00;;;;10355065;28;45767;-63
2022/06/02 14:17:25;;;;;;;0.50;0.50;;;16.20;52.60;18.30;94041.00;;;;10354953;28;45178;-63
2022/06/02 14:23:01;;;;;;;0.82;0.52;;;16.20;52.70;18.30;94043.00;;;;10354458;28;45181;-63
2022/06/02 14:28:42;;;;;;;0.80;0.57;;;16.30;52.60;18.30;94032.00;;;;10354351;28;45152;-63
2022/06/02 14:34:16;;;;;;;0.40;0.40;;;16.30;52.70;18.30;94019.00;;;;10354576;28;45195;-63
2022/06/02 14:39:51;;;;;;;0.38;0.38;;;16.20;52.60;18.30;94025.00;;;;10354162;28;45225;-63
2022/06/02 14:45:18;;;;;;;0.60;0.50;;;16.20;52.60;18.30;94015.00;;;;10355176;28;45325;-62
2022/06/02 14:50:52;;;;;;;0.52;0.50;;;16.20;52.50;18.30;94017.00;;;;10361239;28;45269;-63
2022/06/02 14:56:31;;;;;;;0.77;0.50;;;16.20;52.60;18.30;94011.00;;;;10361128;28;45881;-63
2022/06/02 15:02:06;;;;;;;0.75;0.55;;;16.20;52.50;18.30;94020.00;;;;10360922;28;45107;-63
2022/06/02 15:07:53;;;;;;;0.60;0.50;;;16.20;52.40;18.30;94010.00;;;;10357035;28;45165;-63
2022/06/02 15:13:56;;;;;;;1.20;0.60;;;16.30;52.50;18.40;94028.00;;;;10357238;28;45654;-64
2022/06/02 15:19:56;;;;;;;0.70;0.60;;;16.30;52.30;18.40;94023.00;;;;10359579;28;45110;-63
2022/06/02 15:25:27;;;;;;;1.40;0.40;;;16.30;52.30;18.40;94018.00;;;;10360466;28;45188;-63
2022/06/02 15:31:11;;;;;;;0.80;0.60;;;16.30;52.10;18.40;94000.00;;;;10359207;28;45162;-63
2022/06/02 15:37:07;;;;;;;0.65;0.40;;;16.40;52.00;18.40;94005.00;;;;10358830;28;45147;-63
2022/06/02 15:42:42;;;;;;;1.13;0.60;;;16.40;52.00;18.50;94011.00;;;;10359531;28;45235;-63
2022/06/02 15:49:03;;;;;;;1.77;0.60;;;16.50;52.00;18.50;93999.00;;;;10358780;28;45182;-64
2022/06/02 15:55:32;;;;;;;0.50;0.50;;;16.50;52.30;18.50;93994.00;;;;10359303;28;45686;-63
2022/06/02 16:02:04;;;;;;;0.75;0.60;;;16.50;52.30;18.50;93997.00;;;;10357925;28;45159;-63
2022/06/02 16:08:05;;;;;;;1.13;0.70;;;16.50;52.50;18.50;94009.00;;;;10354940;28;45244;-64
2022/06/02 16:14:19;;;;;;;0.65;0.50;;;16.50;52.60;18.50;94005.00;;;;10356113;28;45230;-64
2022/06/02 16:20:37;;;;;;;1.10;0.75;;;16.50;52.40;18.50;94005.00;;;;10356230;28;45146;-63
2022/06/02 16:26:51;;;;;;;1.10;0.75;;;16.50;52.70;18.60;93997.00;;;;10356101;28;45761;-63
2022/06/02 16:32:32;;;;;;;1.30;0.95;;;16.60;52.90;18.70;93995.00;;;;10355637;28;45243;-63
2022/06/02 16:38:17;;;;;;;1.98;0.95;;;16.60;53.60;18.70;93996.00;;;;10355652;28;45198;-63
2022/06/02 16:44:09;;;;;;;1.42;0.93;;;16.70;54.10;18.70;93996.00;;;;10354892;28;45781;-63
2022/06/02 16:50:03;;;;;;;1.20;1.00;;;16.70;54.40;18.80;93985.00;;;;10356153;28;45304;-63
2022/06/02 16:55:50;;;;;;;1.60;1.08;;;16.80;54.10;18.90;94007.00;;;;10357460;28;45487;-63
2022/06/02 17:01:38;;;;;;;2.40;1.07;;;16.80;54.30;18.90;93994.00;;;;10381231;28;45845;-63
2022/06/02 17:07:12;;;;;;;1.70;0.90;;;16.80;54.10;18.90;93986.00;;;;10396342;28;45375;-62
2022/06/02 17:12:42;;;;;;;1.10;0.90;;;16.80;53.30;18.90;93996.00;;;;10361269;28;45063;-63
2022/06/02 17:18:39;;;;;;;2.92;1.23;;;16.90;53.10;19.00;93995.00;;;;10355632;28;45214;-63
2022/06/02 17:24:32;;;;;;;1.40;1.17;;;16.90;54.00;18.80;93995.00;;;;10356523;28;45153;-63
2022/06/02 17:30:01;;;;;;;2.05;1.10;;;16.90;53.70;18.90;94006.00;;;;10355214;28;45082;-62
2022/06/02 17:35:45;;;;;;;2.33;1.10;;;16.90;53.60;18.90;93990.00;;;;10355236;28;45271;-62
2022/06/02 17:42:01;;;;;;;1.88;0.93;;;16.90;53.80;18.90;94000.00;;;;10354908;28;45180;-62
2022/06/02 17:48:11;;;;;;;1.20;1.00;;;16.80;53.80;18.80;93989.00;;;;10333164;28;45147;-62
2022/06/02 17:53:57;;;;;;;2.13;1.13;;;16.80;54.00;18.80;93995.00;;;;10354741;28;45190;-62
2022/06/02 17:59:45;;;;;;;1.33;0.93;;;16.80;54.20;18.80;93999.00;;;;10353924;28;45254;-62
2022/06/02 18:05:49;;;;;;;1.60;1.00;;;16.80;53.80;18.80;93987.00;;;;10354846;28;45155;-62
2022/06/02 18:11:31;;;;;;;2.75;0.85;;;16.80;53.70;18.80;94008.00;;;;10354272;28;45158;-62
2022/06/02 18:17:53;;;;;;;1.30;0.90;;;16.70;53.70;18.70;94015.00;;;;10353452;28;45273;-62
2022/06/02 18:23:58;;;;;;;1.63;0.80;;;16.70;53.70;18.70;93999.00;;;;10335492;28;45352;-62
2022/06/02 18:30:03;;;;;;;1.60;0.90;;;16.60;53.80;18.70;94011.00;;;;10352653;28;45163;-62
2022/06/02 18:35:39;;;;;;;1.40;0.82;;;16.60;53.70;18.70;94008.00;;;;10319078;28;45096;-62
2022/06/02 18:41:51;;;;;;;1.40;1.00;;;16.60;53.90;18.70;94015.00;;;;10352984;28;45750;-62
2022/06/02 18:48:11;;;;;;;0.90;0.80;;;16.60;53.80;18.60;94007.00;;;;10342510;28;45135;-61
2022/06/02 18:54:17;;;;;;;1.50;0.80;;;16.60;53.80;18.60;94004.00;;;;10352882;28;45168;-61
2022/06/02 19:00:19;;;;;;;0.70;0.70;;;16.50;53.70;18.60;94010.00;;;;10352616;28;45248;-62
2022/06/02 19:18:34;;;;;;;0.75;0.70;;;16.40;53.50;18.50;94014.00;;;;10352063;28;45138;-62
2022/06/02 19:24:22;;;;;;;0.65;0.60;;;16.40;53.70;18.50;94017.00;;;;10352237;28;45329;-62
2022/06/02 19:29:53;;;;;;;;;;;16.40;53.60;18.50;94005.00;;;;10381112;23;45051;-62
2022/06/02 19:35:20;;;;;;;0.70;0.70;;;16.40;53.60;18.50;94008.00;;;;10316521;28;45142;-62
2022/06/02 19:40:52;;;;;;;0.80;0.80;;;16.40;53.50;18.50;94012.00;;;;10315650;28;45237;-63
2022/06/02 19:46:23;;;;;;;0.60;0.60;;;16.40;53.60;18.40;93998.00;;;;10315193;28;45218;-62
2022/06/02 19:51:51;;;;;;;0.85;0.80;;;16.40;53.50;18.50;94024.00;;;;10315304;28;45295;-62
2022/06/02 19:57:22;;;;;;;0.98;0.70;;;16.40;53.60;18.40;94022.00;;;;10315148;28;45234;-62
2022/06/02 20:02:54;;;;;;;0.63;0.60;;;16.40;53.50;18.40;94025.00;;;;10310645;28;45173;-62
2022/06/02 20:08:27;;;;;;;1.13;0.80;;;16.40;53.50;18.40;94034.00;;;;10314269;28;45179;-62
2022/06/02 20:13:53;;;;;;;1.02;0.70;;;16.40;53.40;18.40;94024.00;;;;10315368;28;45169;-62
2022/06/02 20:19:20;;;;;;;1.05;0.70;;;16.40;53.40;18.40;94040.00;;;;10315179;28;45755;-62
2022/06/02 20:24:49;;;;;;;0.88;0.60;;;16.30;53.30;18.40;94039.00;;;;10315089;28;45161;-62
2022/06/02 20:30:21;;;;;;;0.73;0.73;;;16.30;53.50;18.40;94020.00;;;;10277457;28;1065969;-63
2022/06/02 20:36:00;;;;;;;0.68;0.60;;;16.30;53.40;18.40;94034.00;;;;10316504;28;45246;-62
2022/06/02 20:41:42;;;;;;;0.98;0.60;;;16.30;53.40;18.40;94020.00;;;;10316507;28;45287;-62
2022/06/02 20:47:24;;;;;;;0.70;0.60;;;16.30;53.30;18.40;94023.00;;;;10316119;28;45854;-62
2022/06/02 20:52:52;;;;;;;0.90;0.70;;;16.30;53.40;18.40;94039.00;;;;10316119;28;45179;-62
2022/06/02 20:58:32;;;;;;;0.80;0.60;;;16.30;53.30;18.40;94032.00;;;;10316011;28;45247;-62
2022/06/02 21:04:12;;;;;;;0.50;0.50;;;16.30;53.30;18.30;94035.00;;;;10316120;28;45171;-62
2022/06/02 21:09:54;;;;;;;0.88;0.70;;;16.30;53.20;18.30;94034.00;;;;10315281;28;45746;-62
2022/06/02 21:15:38;;;;;;;0.70;0.70;;;16.20;53.30;18.30;94032.00;;;;10316521;28;45399;-62
2022/06/02 21:21:12;;;;;;;0.50;0.50;;;16.30;53.30;18.30;94035.00;;;;10315269;28;45682;-62
2022/06/02 21:27:12;;;;;;;0.70;0.68;;;16.30;53.20;18.30;94037.00;;;;10314274;28;45691;-62
2022/06/02 21:32:42;;;;;;;1.17;0.60;;;16.30;53.30;18.30;94030.00;;;;10246073;28;45408;-62
2022/06/02 21:38:06;;;;;;;0.70;0.55;;;16.30;53.40;18.30;94023.00;;;;10314940;28;45928;-62
2022/06/02 21:43:36;;;;;;;0.70;0.60;;;16.30;53.40;18.30;94029.00;;;;10314671;28;45251;-62
2022/06/02 21:49:03;;;;;;;0.90;0.73;;;16.30;53.40;18.30;94025.00;;;;10314186;28;45265;-62
2022/06/02 21:54:44;;;;;;;0.68;0.60;;;16.30;53.40;18.30;94034.00;;;;10314373;28;45391;-62
2022/06/02 22:00:20;;;;;;;0.52;0.52;;;16.20;53.40;18.30;94025.00;;;;10313251;28;45674;-62
2022/06/02 22:05:51;;;;;;;0.60;0.60;;;16.30;53.50;18.30;94033.00;;;;10313457;28;45120;-62
2022/06/02 22:11:21;;;;;;;0.70;0.63;;;16.20;53.40;18.30;94040.00;;;;10314056;28;45227;-62
2022/06/02 22:16:49;;;;;;;1.30;0.60;;;16.20;53.50;18.30;94018.00;;;;10313602;28;45126;-62
2022/06/02 22:22:30;;;;;;;0.50;0.50;;;16.20;53.40;18.30;94020.00;;;;10313814;28;45140;-62
2022/06/02 22:28:07;;;;;;;1.05;0.50;;;16.20;53.50;18.30;94005.00;;;;10313492;28;45142;-62
2022/06/02 22:33:49;;;;;;;0.75;0.70;;;16.20;53.60;18.30;94006.00;;;;10313154;28;45314;-63
2022/06/02 22:39:37;;;;;;;0.60;0.50;;;16.20;53.60;18.30;93990.00;;;;10312935;28;45144;-62
2022/06/02 22:45:34;;;;;;;0.60;0.60;;;16.20;53.60;18.30;93984.00;;;;10313239;28;45861;-62
2022/06/02 22:51:06;;;;;;;0.80;0.65;;;16.20;53.60;18.30;93976.00;;;;10308759;28;45294;-62
2022/06/02 22:56:39;;;;;;;0.82;0.80;;;16.20;53.70;18.30;93990.00;;;;10312645;28;45874;-62
2022/06/02 23:02:25;;;;;;;0.65;0.65;;;16.20;53.80;18.30;93972.00;;;;10312690;28;45194;-62
2022/06/02 23:08:22;;;;;;;0.70;0.70;;;16.20;53.80;18.30;93980.00;;;;10315266;28;45227;-62
2022/06/02 23:14:22;;;;;;;0.77;0.55;;;16.20;53.80;18.30;93986.00;;;;10319574;28;45719;-62
2022/06/02 23:20:03;;;;;;;1.10;0.80;;;16.20;53.80;18.30;93985.00;;;;10319217;28;45265;-62
2022/06/02 23:25:39;;;;;;;0.90;0.70;;;16.20;53.90;18.30;93981.00;;;;10319505;28;45186;-63
2022/06/02 23:32:07;;;;;;;1.05;0.70;;;16.20;53.90;18.30;93994.00;;;;10318703;28;45140;-62
2022/06/02 23:38:20;;;;;;;0.60;0.50;;;16.20;54.10;18.30;93960.00;;;;10233117;28;45217;-62
2022/06/02 23:44:14;;;;;;;0.63;0.63;;;16.20;54.10;18.20;93972.00;;;;10318609;28;45751;-62
2022/06/02 23:50:16;;;;;;;0.90;0.60;;;16.20;54.10;18.20;93949.00;;;;10317984;28;45894;-62
2022/06/02 23:56:30;;;;;;;1.75;0.60;;;16.20;54.00;18.20;93945.00;;;;10318612;28;45151;-62
